sensor_id;sensor_type;location;lat;lon;timestamp;pressure;altitude;pressure_sealevel;temperature;humidity
64078;BME280;51039;49.696;10.808;2023-02-14T00:01:55;100369.47;;;0.94;100.00
64078;BME280;51039;49.696;10.808;2023-02-14T00:04:21;100366.88;;;0.94;100.00
64078;BME280;51039;49.696;10.808;2023-02-14T00:06:46;100368.38;;;0.98;100.00
64078;BME280;51039;49.696;10.808;2023-02-14T00:09:16;100365.41;;;1.04;100.00
64078;BME280;51039;49.696;10.808;2023-02-14T00:11:43;100360.19;;;1.04;100.00
64078;BME280;51039;49.696;10.808;2023-02-14T00:14:09;100357.38;;;1.07;100.00
64078;BME280;51039;49.696;10.808;2023-02-14T00:17:13;100360.47;;;1.14;100.00
64078;BME280;51039;49.696;10.808;2023-02-14T00:19:38;100354.97;;;1.18;100.00
64078;BME280;51039;49.696;10.808;2023-02-14T00:22:04;100350.56;;;1.19;100.00
64078;BME280;51039;49.696;10.808;2023-02-14T00:24:29;100351.44;;;1.20;100.00
64078;BME280;51039;49.696;10.808;2023-02-14T00:26:55;100355.78;;;1.19;100.00
64078;BME280;51039;49.696;10.808;2023-02-14T00:29:25;100355.25;;;1.14;100.00
64078;BME280;51039;49.696;10.808;2023-02-14T00:31:52;100355.72;;;1.06;100.00
64078;BME280;51039;49.696;10.808;2023-02-14T00:34:18;100346.41;;;1.02;100.00
64078;BME280;51039;49.696;10.808;2023-02-14T00:36:44;100348.91;;;1.04;100.00
64078;BME280;51039;49.696;10.808;2023-02-14T00:39:11;100337.25;;;1.09;100.00
64078;BME280;51039;49.696;10.808;2023-02-14T00:41:37;100339.78;;;1.11;100.00
64078;BME280;51039;49.696;10.808;2023-02-14T00:44:03;100346.56;;;1.13;100.00
64078;BME280;51039;49.696;10.808;2023-02-14T00:46:30;100338.47;;;1.18;100.00
64078;BME280;51039;49.696;10.808;2023-02-14T00:48:55;100346.56;;;1.13;100.00
64078;BME280;51039;49.696;10.808;2023-02-14T00:51:20;100339.59;;;1.14;100.00
64078;BME280;51039;49.696;10.808;2023-02-14T00:53:47;100355.91;;;1.17;100.00
64078;BME280;51039;49.696;10.808;2023-02-14T00:56:13;100345.34;;;1.19;100.00
64078;BME280;51039;49.696;10.808;2023-02-14T00:58:39;100355.78;;;1.19;100.00
64078;BME280;51039;49.696;10.808;2023-02-14T01:01:05;100357.47;;;1.20;100.00
64078;BME280;51039;49.696;10.808;2023-02-14T01:03:31;100356.66;;;1.20;100.00
64078;BME280;51039;49.696;10.808;2023-02-14T01:05:57;100351.31;;;1.21;100.00
64078;BME280;51039;49.696;10.808;2023-02-14T01:08:22;100358.88;;;1.26;100.00
64078;BME280;51039;49.696;10.808;2023-02-14T01:10:48;100362.03;;;1.31;100.00
64078;BME280;51039;49.696;10.808;2023-02-14T01:13:13;100359.81;;;1.25;100.00
64078;BME280;51039;49.696;10.808;2023-02-14T01:15:40;100362.97;;;1.30;100.00
64078;BME280;51039;49.696;10.808;2023-02-14T01:18:07;100360.00;;;1.36;100.00
64078;BME280;51039;49.696;10.808;2023-02-14T01:20:33;100363.63;;;1.33;100.00
64078;BME280;51039;49.696;10.808;2023-02-14T01:22:59;100366.97;;;1.21;100.00
64078;BME280;51039;49.696;10.808;2023-02-14T01:25:25;100355.53;;;1.24;100.00
64078;BME280;51039;49.696;10.808;2023-02-14T01:27:50;100347.03;;;1.20;100.00
64078;BME280;51039;49.696;10.808;2023-02-14T01:30:16;100348.44;;;1.26;100.00
64078;BME280;51039;49.696;10.808;2023-02-14T01:32:41;100349.75;;;1.33;100.00
64078;BME280;51039;49.696;10.808;2023-02-14T01:35:07;100348.81;;;1.34;100.00
64078;BME280;51039;49.696;10.808;2023-02-14T01:37:34;100339.56;;;1.28;100.00
64078;BME280;51039;49.696;10.808;2023-02-14T01:39:59;100339.47;;;1.30;100.00
64078;BME280;51039;49.696;10.808;2023-02-14T01:42:26;100338.44;;;1.32;100.00
64078;BME280;51039;49.696;10.808;2023-02-14T01:45:00;100342.75;;;1.33;100.00
64078;BME280;51039;49.696;10.808;2023-02-14T01:47:53;100342.84;;;1.32;100.00
64078;BME280;51039;49.696;10.808;2023-02-14T01:50:22;100346.09;;;1.21;100.00
64078;BME280;51039;49.696;10.808;2023-02-14T01:52:54;100336.50;;;1.22;100.00
64078;BME280;51039;49.696;10.808;2023-02-14T01:55:26;100344.44;;;1.20;100.00
64078;BME280;51039;49.696;10.808;2023-02-14T01:58:02;100342.28;;;1.12;100.00
64078;BME280;51039;49.696;10.808;2023-02-14T02:00:33;100339.84;;;1.09;100.00
64078;BME280;51039;49.696;10.808;2023-02-14T02:03:18;100351.91;;;1.12;100.00
64078;BME280;51039;49.696;10.808;2023-02-14T02:05:50;100337.63;;;1.17;100.00
64078;BME280;51039;49.696;10.808;2023-02-14T02:08:18;100337.16;;;1.11;100.00
64078;BME280;51039;49.696;10.808;2023-02-14T02:10:44;100347.03;;;1.06;100.00
64078;BME280;51039;49.696;10.808;2023-02-14T02:13:14;100347.88;;;1.06;100.00
64078;BME280;51039;49.696;10.808;2023-02-14T02:15:56;100341.81;;;1.06;100.00
64078;BME280;51039;49.696;10.808;2023-02-14T02:24:45;100327.94;;;1.05;100.00
64078;BME280;51039;49.696;10.808;2023-02-14T02:27:33;100333.16;;;1.05;100.00
64078;BME280;51039;49.696;10.808;2023-02-14T02:44:10;100324.66;;;1.02;100.00
64078;BME280;51039;49.696;10.808;2023-02-14T02:46:43;100320.38;;;1.01;100.00
64078;BME280;51039;49.696;10.808;2023-02-14T02:52:30;100327.19;;;1.03;100.00
64078;BME280;51039;49.696;10.808;2023-02-14T02:55:51;100340.16;;;1.05;100.00
64078;BME280;51039;49.696;10.808;2023-02-14T02:58:40;100331.19;;;1.09;100.00
64078;BME280;51039;49.696;10.808;2023-02-14T03:01:10;100335.09;;;1.02;100.00
64078;BME280;51039;49.696;10.808;2023-02-14T03:03:39;100332.31;;;1.05;100.00
64078;BME280;51039;49.696;10.808;2023-02-14T03:06:28;100334.66;;;0.95;100.00
64078;BME280;51039;49.696;10.808;2023-02-14T03:08:54;100336.31;;;0.96;100.00
64078;BME280;51039;49.696;10.808;2023-02-14T03:11:20;100338.66;;;1.01;100.00
64078;BME280;51039;49.696;10.808;2023-02-14T03:19:04;100342.75;;;1.05;100.00
64078;BME280;51039;49.696;10.808;2023-02-14T03:21:57;100341.19;;;1.02;100.00
64078;BME280;51039;49.696;10.808;2023-02-14T03:24:45;100341.94;;;1.04;100.00
64078;BME280;51039;49.696;10.808;2023-02-14T03:27:27;100343.00;;;1.00;100.00
64078;BME280;51039;49.696;10.808;2023-02-14T03:30:42;100332.41;;;1.03;100.00
64078;BME280;51039;49.696;10.808;2023-02-14T03:32:52;100343.00;;;1.00;100.00
64078;BME280;51039;49.696;10.808;2023-02-14T03:35:45;100341.94;;;1.04;100.00
64078;BME280;51039;49.696;10.808;2023-02-14T03:38:24;100343.13;;;0.98;100.00
64078;BME280;51039;49.696;10.808;2023-02-14T03:40:57;100331.66;;;1.01;100.00
64078;BME280;51039;49.696;10.808;2023-02-14T03:43:32;100333.16;;;1.05;100.00
64078;BME280;51039;49.696;10.808;2023-02-14T03:46:10;100328.75;;;1.06;100.00
64078;BME280;51039;49.696;10.808;2023-02-14T03:48:40;100333.88;;;1.07;100.00
64078;BME280;51039;49.696;10.808;2023-02-14T03:51:08;100334.09;;;1.04;100.00
64078;BME280;51039;49.696;10.808;2023-02-14T03:53:39;100343.59;;;1.05;100.00
64078;BME280;51039;49.696;10.808;2023-02-14T03:56:14;100346.19;;;1.05;100.00
64078;BME280;51039;49.696;10.808;2023-02-14T03:58:48;100338.47;;;1.04;100.00
64078;BME280;51039;49.696;10.808;2023-02-14T04:03:42;100343.22;;;0.97;100.00
64078;BME280;51039;49.696;10.808;2023-02-14T04:06:08;100337.53;;;1.05;100.00
64078;BME280;51039;49.696;10.808;2023-02-14T04:08:33;100337.91;;;1.13;100.00
64078;BME280;51039;49.696;10.808;2023-02-14T04:11:00;100328.13;;;1.16;100.00
64078;BME280;51039;49.696;10.808;2023-02-14T04:13:27;100327.94;;;1.05;100.00
64078;BME280;51039;49.696;10.808;2023-02-14T04:15:52;100334.38;;;1.14;100.00
64078;BME280;51039;49.696;10.808;2023-02-14T04:18:17;100335.50;;;1.10;100.00
64078;BME280;51039;49.696;10.808;2023-02-14T04:21:01;100339.69;;;1.12;100.00
64078;BME280;51039;49.696;10.808;2023-02-14T04:23:27;100340.34;;;1.16;100.00
64078;BME280;51039;49.696;10.808;2023-02-14T04:25:52;100338.84;;;1.12;100.00
64078;BME280;51039;49.696;10.808;2023-02-14T04:28:18;100339.47;;;1.15;100.00
64078;BME280;51039;49.696;10.808;2023-02-14T04:30:43;100340.41;;;1.14;100.00
64078;BME280;51039;49.696;10.808;2023-02-14T04:33:08;100333.06;;;1.07;100.00
64078;BME280;51039;49.696;10.808;2023-02-14T04:35:34;100328.50;;;1.10;100.00
64078;BME280;51039;49.696;10.808;2023-02-14T04:38:00;100334.28;;;1.01;100.00
64078;BME280;51039;49.696;10.808;2023-02-14T04:40:26;100332.56;;;1.00;100.00
64078;BME280;51039;49.696;10.808;2023-02-14T04:42:52;100326.53;;;1.00;100.00
64078;BME280;51039;49.696;10.808;2023-02-14T04:45:17;100323.09;;;0.99;100.00
64078;BME280;51039;49.696;10.808;2023-02-14T04:47:43;100323.75;;;1.03;100.00
64078;BME280;51039;49.696;10.808;2023-02-14T04:50:08;100322.91;;;1.02;100.00
64078;BME280;51039;49.696;10.808;2023-02-14T04:52:33;100314.22;;;1.02;100.00
64078;BME280;51039;49.696;10.808;2023-02-14T04:54:59;100306.31;;;1.03;100.00
64078;BME280;51039;49.696;10.808;2023-02-14T04:57:24;100310.97;;;0.98;100.00
64078;BME280;51039;49.696;10.808;2023-02-14T04:59:49;100307.25;;;1.02;100.00
64078;BME280;51039;49.696;10.808;2023-02-14T05:02:15;100309.00;;;1.02;100.00
64078;BME280;51039;49.696;10.808;2023-02-14T05:04:40;100296.25;;;0.97;100.00
64078;BME280;51039;49.696;10.808;2023-02-14T05:07:05;100299.78;;;0.82;100.00
64078;BME280;51039;49.696;10.808;2023-02-14T05:09:31;100298.75;;;0.70;100.00
64078;BME280;51039;49.696;10.808;2023-02-14T05:11:56;100300.91;;;0.77;100.00
64078;BME280;51039;49.696;10.808;2023-02-14T05:14:21;100304.34;;;0.78;100.00
64078;BME280;51039;49.696;10.808;2023-02-14T05:16:47;100294.09;;;0.75;100.00
64078;BME280;51039;49.696;10.808;2023-02-14T05:19:12;100291.88;;;0.83;100.00
64078;BME280;51039;49.696;10.808;2023-02-14T05:21:37;100298.00;;;0.82;100.00
64078;BME280;51039;49.696;10.808;2023-02-14T05:24:03;100294.00;;;0.76;100.00
64078;BME280;51039;49.696;10.808;2023-02-14T05:26:28;100302.13;;;0.72;100.00
64078;BME280;51039;49.696;10.808;2023-02-14T05:28:54;100293.25;;;0.74;100.00
64078;BME280;51039;49.696;10.808;2023-02-14T05:31:19;100299.59;;;0.70;100.00
64078;BME280;51039;49.696;10.808;2023-02-14T05:33:44;100304.53;;;0.61;100.00
64078;BME280;51039;49.696;10.808;2023-02-14T05:36:10;100293.91;;;0.64;100.00
64078;BME280;51039;49.696;10.808;2023-02-14T05:38:35;100303.03;;;0.56;100.00
64078;BME280;51039;49.696;10.808;2023-02-14T05:41:01;100300.13;;;0.47;100.00
64078;BME280;51039;49.696;10.808;2023-02-14T05:43:26;100297.88;;;0.41;100.00
64078;BME280;51039;49.696;10.808;2023-02-14T05:45:52;100298.44;;;0.46;100.00
64078;BME280;51039;49.696;10.808;2023-02-14T05:48:18;100290.44;;;0.49;100.00
64078;BME280;51039;49.696;10.808;2023-02-14T05:50:44;100284.94;;;0.53;100.00
64078;BME280;51039;49.696;10.808;2023-02-14T05:53:09;100292.50;;;0.58;100.00
64078;BME280;51039;49.696;10.808;2023-02-14T05:55:35;100291.56;;;0.59;100.00
64078;BME280;51039;49.696;10.808;2023-02-14T05:58:00;100293.03;;;0.49;100.00
64078;BME280;51039;49.696;10.808;2023-02-14T06:00:26;100288.22;;;0.57;100.00
64078;BME280;51039;49.696;10.808;2023-02-14T06:02:52;100284.84;;;0.55;100.00
64078;BME280;51039;49.696;10.808;2023-02-14T06:05:17;100286.25;;;0.61;100.00
64078;BME280;51039;49.696;10.808;2023-02-14T06:07:44;100295.88;;;0.60;100.00
64078;BME280;51039;49.696;10.808;2023-02-14T06:10:14;100295.38;;;0.53;100.00
64078;BME280;51039;49.696;10.808;2023-02-14T06:12:41;100292.59;;;0.56;100.00
64078;BME280;51039;49.696;10.808;2023-02-14T06:15:06;100294.38;;;0.56;100.00
64078;BME280;51039;49.696;10.808;2023-02-14T06:17:32;100303.78;;;0.58;100.00
64078;BME280;51039;49.696;10.808;2023-02-14T06:19:58;100298.84;;;0.68;100.00
64078;BME280;51039;49.696;10.808;2023-02-14T06:22:24;100302.19;;;0.70;100.00
64078;BME280;51039;49.696;10.808;2023-02-14T06:24:49;100299.75;;;0.67;100.00
64078;BME280;51039;49.696;10.808;2023-02-14T06:27:14;100302.28;;;0.69;100.00
64078;BME280;51039;49.696;10.808;2023-02-14T06:29:39;100298.47;;;0.74;100.00
64078;BME280;51039;49.696;10.808;2023-02-14T06:32:05;100305.19;;;0.78;100.00
64078;BME280;51039;49.696;10.808;2023-02-14T06:34:31;100303.31;;;0.81;100.00
64078;BME280;51039;49.696;10.808;2023-02-14T06:36:57;100303.31;;;0.81;100.00
64078;BME280;51039;49.696;10.808;2023-02-14T06:39:23;100300.81;;;0.79;100.00
64078;BME280;51039;49.696;10.808;2023-02-14T06:41:48;100309.41;;;0.81;100.00
64078;BME280;51039;49.696;10.808;2023-02-14T06:44:13;100311.50;;;0.74;100.00
64078;BME280;51039;49.696;10.808;2023-02-14T06:46:39;100310.84;;;0.71;100.00
64078;BME280;51039;49.696;10.808;2023-02-14T06:49:04;100312.34;;;0.75;100.00
64078;BME280;51039;49.696;10.808;2023-02-14T06:51:29;100313.94;;;0.77;100.00
64078;BME280;51039;49.696;10.808;2023-02-14T06:53:54;100313.00;;;0.78;100.00
64078;BME280;51039;49.696;10.808;2023-02-14T06:56:20;100308.16;;;0.72;100.00
64078;BME280;51039;49.696;10.808;2023-02-14T06:58:45;100319.72;;;0.68;100.00
64078;BME280;51039;49.696;10.808;2023-02-14T07:01:10;100319.34;;;0.60;100.00
64078;BME280;51039;49.696;10.808;2023-02-14T07:03:36;100322.16;;;0.71;100.00
64078;BME280;51039;49.696;10.808;2023-02-14T07:06:01;100314.94;;;0.75;100.00
64078;BME280;51039;49.696;10.808;2023-02-14T07:08:26;100323.16;;;0.69;100.00
64078;BME280;51039;49.696;10.808;2023-02-14T07:10:55;100321.50;;;0.68;100.00
64078;BME280;51039;49.696;10.808;2023-02-14T07:13:22;100321.13;;;0.74;100.00
64078;BME280;51039;49.696;10.808;2023-02-14T07:15:47;100324.75;;;0.71;100.00
64078;BME280;51039;49.696;10.808;2023-02-14T07:18:12;100311.41;;;0.62;100.00
64078;BME280;51039;49.696;10.808;2023-02-14T07:20:38;100325.84;;;0.67;100.00
64078;BME280;51039;49.696;10.808;2023-02-14T07:23:03;100318.97;;;0.66;100.00
64078;BME280;51039;49.696;10.808;2023-02-14T07:25:28;100320.44;;;0.56;100.00
64078;BME280;51039;49.696;10.808;2023-02-14T07:27:54;100324.06;;;0.53;100.00
64078;BME280;51039;49.696;10.808;2023-02-14T07:30:19;100324.06;;;0.53;100.00
64078;BME280;51039;49.696;10.808;2023-02-14T07:32:45;100325.09;;;0.65;100.00
64078;BME280;51039;49.696;10.808;2023-02-14T07:35:10;100324.72;;;0.57;100.00
64078;BME280;51039;49.696;10.808;2023-02-14T07:37:36;100314.50;;;0.68;100.00
64078;BME280;51039;49.696;10.808;2023-02-14T07:40:02;100312.63;;;0.70;100.00
64078;BME280;51039;49.696;10.808;2023-02-14T07:42:28;100319.25;;;0.76;100.00
64078;BME280;51039;49.696;10.808;2023-02-14T07:44:53;100317.56;;;0.75;100.00
64078;BME280;51039;49.696;10.808;2023-02-14T07:47:18;100318.69;;;0.71;100.00
64078;BME280;51039;49.696;10.808;2023-02-14T07:49:44;100313.28;;;0.74;100.00
64078;BME280;51039;49.696;10.808;2023-02-14T07:52:09;100310.47;;;0.77;100.00
64078;BME280;51039;49.696;10.808;2023-02-14T07:54:34;100313.91;;;0.63;100.00
64078;BME280;51039;49.696;10.808;2023-02-14T07:57:00;100313.53;;;0.69;100.00
64078;BME280;51039;49.696;10.808;2023-02-14T07:59:25;100308.16;;;0.72;100.00
64078;BME280;51039;49.696;10.808;2023-02-14T08:01:50;100315.53;;;0.80;100.00
64078;BME280;51039;49.696;10.808;2023-02-14T08:04:16;100315.63;;;0.78;100.00
64078;BME280;51039;49.696;10.808;2023-02-14T08:06:41;100309.47;;;0.80;100.00
64078;BME280;51039;49.696;10.808;2023-02-14T08:09:07;100311.34;;;0.77;100.00
64078;BME280;51039;49.696;10.808;2023-02-14T08:11:34;100305.94;;;1.24;100.00
64078;BME280;51039;49.696;10.808;2023-02-14T08:14:19;100299.59;;;1.28;100.00
64078;BME280;51039;49.696;10.808;2023-02-14T08:16:45;100299.91;;;1.50;100.00
64078;BME280;51039;49.696;10.808;2023-02-14T08:19:10;100306.41;;;1.57;100.00
64078;BME280;51039;49.696;10.808;2023-02-14T08:21:35;100292.53;;;0.87;100.00
64078;BME280;51039;49.696;10.808;2023-02-14T08:24:01;100301.25;;;1.43;100.00
64078;BME280;51039;49.696;10.808;2023-02-14T08:26:26;100301.56;;;1.66;100.00
64078;BME280;51039;49.696;10.808;2023-02-14T08:28:51;100293.41;;;1.43;99.64
64078;BME280;51039;49.696;10.808;2023-02-14T08:31:20;100288.09;;;1.30;100.00
64078;BME280;51039;49.696;10.808;2023-02-14T08:33:55;100292.41;;;1.31;100.00
64078;BME280;51039;49.696;10.808;2023-02-14T08:36:21;100289.88;;;1.15;100.00
64078;BME280;51039;49.696;10.808;2023-02-14T08:38:46;100293.25;;;1.17;100.00
64078;BME280;51039;49.696;10.808;2023-02-14T08:41:16;100287.94;;;1.19;100.00
64078;BME280;51039;49.696;10.808;2023-02-14T08:43:42;100286.66;;;1.12;100.00
64078;BME280;51039;49.696;10.808;2023-02-14T08:46:08;100283.94;;;0.99;100.00
64078;BME280;51039;49.696;10.808;2023-02-14T08:48:36;100284.31;;;0.93;100.00
64078;BME280;51039;49.696;10.808;2023-02-14T08:51:05;100288.22;;;1.00;100.00
64078;BME280;51039;49.696;10.808;2023-02-14T08:53:31;100288.69;;;0.92;100.00
64078;BME280;51039;49.696;10.808;2023-02-14T08:56:00;100284.41;;;1.06;100.00
64078;BME280;51039;49.696;10.808;2023-02-14T08:58:33;100290.53;;;1.19;100.00
64078;BME280;51039;49.696;10.808;2023-02-14T09:01:11;100294.94;;;1.18;100.00
64078;BME280;51039;49.696;10.808;2023-02-14T09:03:39;100302.00;;;1.16;100.00
64078;BME280;51039;49.696;10.808;2023-02-14T09:06:05;100310.59;;;1.33;100.00
64078;BME280;51039;49.696;10.808;2023-02-14T09:08:33;100296.28;;;1.38;100.00
64078;BME280;51039;49.696;10.808;2023-02-14T09:11:15;100304.03;;;1.40;100.00
64078;BME280;51039;49.696;10.808;2023-02-14T09:13:43;100295.53;;;1.36;100.00
64078;BME280;51039;49.696;10.808;2023-02-14T09:16:10;100294.16;;;1.31;100.00
64078;BME280;51039;49.696;10.808;2023-02-14T09:18:37;100287.97;;;1.46;100.00
64078;BME280;51039;49.696;10.808;2023-02-14T09:21:07;100287.72;;;1.36;100.00
64078;BME280;51039;49.696;10.808;2023-02-14T09:23:53;100286.06;;;1.21;100.00
64078;BME280;51039;49.696;10.808;2023-02-14T09:26:19;100288.19;;;1.43;100.00
64078;BME280;51039;49.696;10.808;2023-02-14T09:28:45;100289.25;;;1.53;100.00
64078;BME280;51039;49.696;10.808;2023-02-14T09:31:18;100288.88;;;1.60;100.00
64078;BME280;51039;49.696;10.808;2023-02-14T09:33:45;100271.59;;;1.71;100.00
64078;BME280;51039;49.696;10.808;2023-02-14T09:36:12;100281.16;;;1.58;99.47
64078;BME280;51039;49.696;10.808;2023-02-14T09:38:56;100279.59;;;1.41;100.00
64078;BME280;51039;49.696;10.808;2023-02-14T09:41:30;100284.69;;;1.57;100.00
64078;BME280;51039;49.696;10.808;2023-02-14T09:44:28;100284.44;;;1.47;100.00
64078;BME280;51039;49.696;10.808;2023-02-14T09:47:05;100282.16;;;1.55;100.00
64078;BME280;51039;49.696;10.808;2023-02-14T09:49:40;100274.72;;;1.76;100.00
64078;BME280;51039;49.696;10.808;2023-02-14T09:52:08;100268.59;;;1.90;100.00
64078;BME280;51039;49.696;10.808;2023-02-14T09:54:37;100270.94;;;1.95;98.81
64078;BME280;51039;49.696;10.808;2023-02-14T09:57:10;100268.56;;;2.05;98.50
64078;BME280;51039;49.696;10.808;2023-02-14T10:06:39;100270.44;;;2.15;97.43
64078;BME280;51039;49.696;10.808;2023-02-14T10:09:09;100268.25;;;2.09;96.81
64078;BME280;51039;49.696;10.808;2023-02-14T10:11:42;100270.94;;;2.08;96.77
64078;BME280;51039;49.696;10.808;2023-02-14T10:14:11;100274.75;;;2.16;96.29
64078;BME280;51039;49.696;10.808;2023-02-14T10:16:45;100273.56;;;2.08;96.47
64078;BME280;51039;49.696;10.808;2023-02-14T10:19:18;100279.41;;;1.99;97.35
64078;BME280;51039;49.696;10.808;2023-02-14T10:21:50;100274.19;;;1.99;97.16
64078;BME280;51039;49.696;10.808;2023-02-14T10:24:27;100278.06;;;2.06;97.60
64078;BME280;51039;49.696;10.808;2023-02-14T10:27:08;100274.38;;;1.95;97.55
64078;BME280;51039;49.696;10.808;2023-02-14T10:29:36;100272.25;;;1.88;98.18
64078;BME280;51039;49.696;10.808;2023-02-14T10:32:02;100269.84;;;1.85;98.50
64078;BME280;51039;49.696;10.808;2023-02-14T10:53:07;100259.22;;;2.41;95.47
64078;BME280;51039;49.696;10.808;2023-02-14T10:55:47;100257.09;;;2.46;96.09
64078;BME280;51039;49.696;10.808;2023-02-14T10:58:19;100261.38;;;2.60;95.61
64078;BME280;51039;49.696;10.808;2023-02-14T11:01:00;100263.28;;;2.70;94.67
64078;BME280;51039;49.696;10.808;2023-02-14T11:03:30;100264.44;;;2.53;94.46
64078;BME280;51039;49.696;10.808;2023-02-14T11:05:58;100258.16;;;2.82;94.27
64078;BME280;51039;49.696;10.808;2023-02-14T11:08:31;100255.63;;;2.93;93.17
64078;BME280;51039;49.696;10.808;2023-02-14T11:11:00;100250.16;;;2.96;92.41
64078;BME280;51039;49.696;10.808;2023-02-14T11:13:37;100247.59;;;3.20;92.35
64078;BME280;51039;49.696;10.808;2023-02-14T11:16:09;100243.03;;;2.98;92.46
64078;BME280;51039;49.696;10.808;2023-02-14T11:18:37;100236.50;;;3.17;91.79
64078;BME280;51039;49.696;10.808;2023-02-14T11:21:15;100229.59;;;3.15;91.83
64078;BME280;51039;49.696;10.808;2023-02-14T11:23:49;100237.09;;;3.33;91.26
64078;BME280;51039;49.696;10.808;2023-02-14T11:26:22;100236.09;;;3.47;90.47
64078;BME280;51039;49.696;10.808;2023-02-14T11:28:52;100235.75;;;3.27;90.62
64078;BME280;51039;49.696;10.808;2023-02-14T11:33:56;100229.03;;;2.86;92.53
64078;BME280;51039;49.696;10.808;2023-02-14T11:36:22;100223.88;;;2.85;93.53
64078;BME280;51039;49.696;10.808;2023-02-14T11:39:23;100223.13;;;3.08;92.40
64078;BME280;51039;49.696;10.808;2023-02-14T11:41:50;100216.66;;;3.01;91.97
64078;BME280;51039;49.696;10.808;2023-02-14T11:44:23;100219.78;;;3.06;91.47
64078;BME280;51039;49.696;10.808;2023-02-14T11:46:51;100217.47;;;3.14;90.63
64078;BME280;51039;49.696;10.808;2023-02-14T11:49:23;100221.75;;;2.27;94.29
64078;BME280;51039;49.696;10.808;2023-02-14T11:51:51;100218.19;;;2.28;95.98
64078;BME280;51039;49.696;10.808;2023-02-14T11:57:00;100209.16;;;2.84;94.14
64078;BME280;51039;49.696;10.808;2023-02-14T11:59:28;100201.75;;;3.14;92.57
64078;BME280;51039;49.696;10.808;2023-02-14T12:01:57;100204.03;;;3.19;91.16
64078;BME280;51039;49.696;10.808;2023-02-14T12:04:34;100198.38;;;3.25;90.50
64078;BME280;51039;49.696;10.808;2023-02-14T12:07:11;100196.31;;;3.18;90.29
64078;BME280;51039;49.696;10.808;2023-02-14T12:09:39;100199.75;;;3.18;90.46
64078;BME280;51039;49.696;10.808;2023-02-14T12:12:17;100184.84;;;2.94;91.01
64078;BME280;51039;49.696;10.808;2023-02-14T12:14:47;100178.91;;;2.67;91.91
64078;BME280;51039;49.696;10.808;2023-02-14T12:17:17;100175.66;;;2.76;92.05
64078;BME280;51039;49.696;10.808;2023-02-14T12:22:36;100166.19;;;3.23;91.51
64078;BME280;51039;49.696;10.808;2023-02-14T12:25:14;100165.84;;;3.52;89.76
64078;BME280;51039;49.696;10.808;2023-02-14T12:27:57;100168.94;;;3.46;88.97
64078;BME280;51039;49.696;10.808;2023-02-14T12:30:30;100166.88;;;3.38;89.16
64078;BME280;51039;49.696;10.808;2023-02-14T12:32:58;100164.09;;;3.52;88.24
64078;BME280;51039;49.696;10.808;2023-02-14T12:35:41;100163.84;;;3.56;87.53
64078;BME280;51039;49.696;10.808;2023-02-14T12:44:04;100150.78;;;3.67;88.28
64078;BME280;51039;49.696;10.808;2023-02-14T12:52:43;100148.53;;;3.38;89.03
64078;BME280;51039;49.696;10.808;2023-02-14T12:55:26;100135.44;;;2.90;91.27
64078;BME280;51039;49.696;10.808;2023-02-14T12:57:59;100140.00;;;2.62;92.25
64078;BME280;51039;49.696;10.808;2023-02-14T13:00:50;100131.72;;;2.68;92.98
64078;BME280;51039;49.696;10.808;2023-02-14T13:03:39;100131.97;;;2.89;91.75
64078;BME280;51039;49.696;10.808;2023-02-14T13:06:39;100123.84;;;3.05;91.43
64078;BME280;51039;49.696;10.808;2023-02-14T13:16:56;100115.59;;;3.23;92.90
64078;BME280;51039;49.696;10.808;2023-02-14T13:22:15;100111.31;;;2.73;91.40
64078;BME280;51039;49.696;10.808;2023-02-14T13:24:45;100102.03;;;2.93;91.10
64078;BME280;51039;49.696;10.808;2023-02-14T13:27:21;100117.06;;;3.03;89.94
64078;BME280;51039;49.696;10.808;2023-02-14T13:29:52;100105.22;;;3.10;90.03
64078;BME280;51039;49.696;10.808;2023-02-14T13:32:24;100099.97;;;3.10;89.59
64078;BME280;51039;49.696;10.808;2023-02-14T13:34:55;100096.06;;;2.91;90.18
64078;BME280;51039;49.696;10.808;2023-02-14T13:37:21;100100.69;;;2.88;90.62
64078;BME280;51039;49.696;10.808;2023-02-14T13:39:58;100103.56;;;2.96;91.11
64078;BME280;51039;49.696;10.808;2023-02-14T13:50:29;100098.25;;;3.22;88.91
64078;BME280;51039;49.696;10.808;2023-02-14T13:52:57;100098.13;;;2.99;90.04
64078;BME280;51039;49.696;10.808;2023-02-14T13:55:25;100091.47;;;2.82;90.84
64078;BME280;51039;49.696;10.808;2023-02-14T13:58:02;100093.28;;;2.45;92.42
64078;BME280;51039;49.696;10.808;2023-02-14T14:03:02;100101.22;;;2.56;92.21
64078;BME280;51039;49.696;10.808;2023-02-14T14:10:47;100093.53;;;2.90;91.18
64078;BME280;51039;49.696;10.808;2023-02-14T14:18:50;100094.53;;;2.39;91.87
64078;BME280;51039;49.696;10.808;2023-02-14T14:21:35;100089.13;;;2.29;92.52
64078;BME280;51039;49.696;10.808;2023-02-14T14:24:17;100095.47;;;2.51;92.78
64078;BME280;51039;49.696;10.808;2023-02-14T14:27:06;100092.38;;;2.70;91.44
64078;BME280;51039;49.696;10.808;2023-02-14T14:29:42;100099.44;;;2.44;92.60
64078;BME280;51039;49.696;10.808;2023-02-14T14:32:18;100094.50;;;2.52;92.44
64078;BME280;51039;49.696;10.808;2023-02-14T14:37:17;100092.31;;;2.46;92.96
64078;BME280;51039;49.696;10.808;2023-02-14T14:39:49;100085.00;;;2.75;92.64
64078;BME280;51039;49.696;10.808;2023-02-14T14:42:16;100093.66;;;2.88;91.67
64078;BME280;51039;49.696;10.808;2023-02-14T14:44:58;100079.47;;;2.80;91.42
64078;BME280;51039;49.696;10.808;2023-02-14T14:50:16;100082.88;;;2.93;91.10
64078;BME280;51039;49.696;10.808;2023-02-14T14:52:46;100081.69;;;2.97;90.50